Time;durP1;ratioP1;P1;durP2;ratioP2;P2;SDS_P1;SDS_P2;PMS_P1;PMS_P2;Temp;Humidity;BMP_temperature;BMP_pressure;BME280_temperature;BME280_humidity;BME280_pressure;Samples;Min_cycle;Max_cycle;Signal;HPM_P1;HPM_P2
2022/07/24 00:00:51;;;;;;;6.38;5.20;;;17.50;99.90;;;;;;5096784;28;20340;-69
2022/07/24 00:03:16;;;;;;;6.43;5.32;;;17.40;99.90;;;;;;5096931;28;20189;-70
2022/07/24 00:05:42;;;;;;;8.70;5.57;;;17.40;99.90;;;;;;5096963;28;20468;-68
2022/07/24 00:08:07;;;;;;;6.43;5.82;;;17.40;99.90;;;;;;5079127;28;20411;-70
2022/07/24 00:10:33;;;;;;;8.45;5.00;;;17.30;99.90;;;;;;5096772;28;20047;-68
2022/07/24 00:12:58;;;;;;;6.38;5.55;;;17.30;99.90;;;;;;5078947;28;20056;-70
2022/07/24 00:15:24;;;;;;;6.95;5.63;;;17.30;99.90;;;;;;5097355;28;20046;-69
2022/07/24 00:17:50;;;;;;;9.10;5.60;;;17.30;99.90;;;;;;5098054;28;20048;-70
2022/07/24 00:20:15;;;;;;;7.53;5.50;;;17.30;99.90;;;;;;5097890;28;20054;-68
2022/07/24 00:22:41;;;;;;;7.45;5.47;;;17.20;99.90;;;;;;5097905;28;20048;-70
2022/07/24 00:25:07;;;;;;;8.30;6.68;;;17.20;99.90;;;;;;5097652;28;20046;-68
2022/07/24 00:27:32;;;;;;;6.70;6.03;;;17.20;99.90;;;;;;5097868;28;20063;-68
2022/07/24 00:29:58;;;;;;;7.47;5.90;;;17.20;99.90;;;;;;5078827;28;20088;-67
2022/07/24 00:32:23;;;;;;;7.18;5.90;;;17.20;99.90;;;;;;5096361;28;20040;-71
2022/07/24 00:34:49;;;;;;;7.20;6.20;;;17.10;99.90;;;;;;5096486;28;20044;-70
2022/07/24 00:37:14;;;;;;;7.13;6.28;;;17.10;99.90;;;;;;5096407;28;20078;-72
2022/07/24 00:39:40;;;;;;;11.43;7.18;;;17.10;99.90;;;;;;5096178;28;20477;-70
2022/07/24 00:42:06;;;;;;;7.25;6.55;;;17.20;99.90;;;;;;5095970;28;20113;-68
2022/07/24 00:44:31;;;;;;;10.43;7.07;;;17.10;99.90;;;;;;5096165;28;20051;-70
2022/07/24 00:46:57;;;;;;;8.52;5.88;;;17.00;99.90;;;;;;5095875;28;20311;-68
2022/07/24 00:49:22;;;;;;;8.02;6.55;;;17.00;99.90;;;;;;5096088;28;20098;-70
2022/07/24 00:51:52;;;;;;;9.90;6.57;;;17.00;99.90;;;;;;5096341;28;20051;-68
2022/07/24 00:54:20;;;;;;;8.25;6.95;;;17.00;99.90;;;;;;5095890;28;20131;-70
2022/07/24 00:56:48;;;;;;;9.10;7.13;;;17.00;99.90;;;;;;5078406;28;20131;-67
2022/07/24 00:59:14;;;;;;;11.57;6.93;;;17.10;99.90;;;;;;5095797;28;20040;-67
2022/07/24 01:01:40;;;;;;;8.52;6.80;;;16.90;99.90;;;;;;5095965;28;20105;-71
2022/07/24 01:04:05;;;;;;;8.95;7.53;;;16.90;99.90;;;;;;5078068;28;20056;-70
2022/07/24 01:06:31;;;;;;;7.53;6.78;;;16.90;99.90;;;;;;5095757;28;20114;-68
2022/07/24 01:08:57;;;;;;;8.63;6.85;;;17.00;99.90;;;;;;5095618;28;20131;-68
2022/07/24 01:11:24;;;;;;;8.07;7.28;;;16.90;99.90;;;;;;5077746;28;20048;-69
2022/07/24 01:13:50;;;;;;;8.50;7.63;;;16.90;99.90;;;;;;5095527;28;20082;-68
2022/07/24 01:16:17;;;;;;;8.40;7.60;;;16.90;99.90;;;;;;5077973;28;20415;-69
2022/07/24 01:18:42;;;;;;;8.40;7.45;;;16.90;99.90;;;;;;5095636;28;20185;-70
2022/07/24 01:21:08;;;;;;;8.55;7.35;;;16.90;99.90;;;;;;5095848;28;20085;-70
2022/07/24 01:23:34;;;;;;;8.38;7.35;;;16.90;99.90;;;;;;5095584;28;20048;-68
2022/07/24 01:26:01;;;;;;;9.32;8.05;;;16.80;99.90;;;;;;5095438;28;20143;-69
2022/07/24 01:28:27;;;;;;;9.35;8.05;;;16.80;99.90;;;;;;5095502;28;20056;-70
2022/07/24 01:30:53;;;;;;;9.80;8.20;;;16.80;99.90;;;;;;5095184;28;20142;-67
2022/07/24 01:33:19;;;;;;;9.30;8.35;;;16.80;99.90;;;;;;5095361;28;20047;-69
2022/07/24 01:35:45;;;;;;;10.50;7.97;;;16.80;99.90;;;;;;5094999;28;20086;-67
2022/07/24 01:38:13;;;;;;;8.82;7.85;;;16.80;99.90;;;;;;5095268;28;20058;-70
2022/07/24 01:40:39;;;;;;;9.63;8.25;;;16.80;99.90;;;;;;5095202;28;20040;-71
2022/07/24 01:43:04;;;;;;;9.77;8.77;;;16.80;99.90;;;;;;5095255;28;20056;-69
2022/07/24 01:45:30;;;;;;;9.55;8.57;;;16.80;99.90;;;;;;5095397;28;20057;-68
2022/07/24 01:47:56;;;;;;;10.82;9.02;;;16.80;99.90;;;;;;5095246;28;20052;-68
2022/07/24 01:50:21;;;;;;;10.30;9.23;;;16.80;99.90;;;;;;5077457;28;20047;-68
2022/07/24 01:52:47;;;;;;;10.35;9.25;;;16.80;99.90;;;;;;5095268;28;20044;-70
2022/07/24 01:55:13;;;;;;;10.35;8.27;;;16.80;99.90;;;;;;5060931;28;20048;-70
2022/07/24 01:57:39;;;;;;;9.57;8.52;;;16.90;99.90;;;;;;5094996;28;20375;-67
2022/07/24 02:00:09;;;;;;;10.02;8.73;;;16.80;99.90;;;;;;5095148;28;20346;-69
2022/07/24 02:02:34;;;;;;;11.13;9.60;;;16.80;99.90;;;;;;5094656;28;20047;-67
2022/07/24 02:05:00;;;;;;;9.40;8.35;;;16.80;99.90;;;;;;5095200;28;20044;-68
2022/07/24 02:07:25;;;;;;;13.02;9.35;;;16.80;99.90;;;;;;5095125;28;20044;-68
2022/07/24 02:09:51;;;;;;;9.75;8.50;;;16.90;99.90;;;;;;5094934;28;20044;-67
2022/07/24 02:12:17;;;;;;;10.65;9.57;;;16.90;99.90;;;;;;5094941;28;20040;-70
2022/07/24 02:14:42;;;;;;;11.88;9.60;;;16.90;99.90;;;;;;5094709;28;20044;-71
2022/07/24 02:17:08;;;;;;;12.30;9.57;;;16.80;99.90;;;;;;5094967;28;20051;-68
2022/07/24 02:19:33;;;;;;;10.52;9.43;;;16.90;99.90;;;;;;5059562;28;20058;-68
2022/07/24 02:21:59;;;;;;;13.07;10.35;;;16.90;99.90;;;;;;5094984;28;20388;-68
2022/07/24 02:24:24;;;;;;;11.63;10.32;;;16.80;99.90;;;;;;5094767;28;20032;-69
2022/07/24 02:26:50;;;;;;;11.90;9.25;;;16.80;99.90;;;;;;5094708;28;20109;-70
2022/07/24 02:29:16;;;;;;;10.23;9.23;;;16.80;99.90;;;;;;5094709;28;20474;-70
2022/07/24 02:31:41;;;;;;;11.00;8.85;;;16.80;99.90;;;;;;5094868;28;20044;-70
2022/07/24 02:34:07;;;;;;;11.10;9.00;;;16.90;99.90;;;;;;5094989;28;20051;-67
2022/07/24 02:36:32;;;;;;;10.43;9.20;;;16.80;99.90;;;;;;5094702;28;20075;-68
2022/07/24 02:38:58;;;;;;;10.30;9.15;;;16.90;99.90;;;;;;5094586;28;20109;-70
2022/07/24 02:41:23;;;;;;;11.25;9.13;;;16.90;99.90;;;;;;5094567;28;20099;-70
2022/07/24 02:43:49;;;;;;;11.85;9.65;;;16.90;99.90;;;;;;5095000;28;20048;-70
2022/07/24 02:46:14;;;;;;;11.23;9.98;;;16.90;99.90;;;;;;5076812;28;20480;-67
2022/07/24 02:48:40;;;;;;;10.30;9.30;;;16.90;99.90;;;;;;5097050;28;20339;-68
2022/07/24 02:51:06;;;;;;;12.05;9.98;;;16.80;99.90;;;;;;5098294;28;20072;-70
2022/07/24 02:53:32;;;;;;;12.27;9.43;;;16.90;99.90;;;;;;5098284;28;20470;-69
2022/07/24 02:55:58;;;;;;;10.95;9.77;;;16.90;99.90;;;;;;5098187;28;20043;-71
2022/07/24 02:58:23;;;;;;;12.40;9.10;;;16.90;99.90;;;;;;5098174;28;20040;-68
2022/07/24 03:00:49;;;;;;;11.63;10.43;;;16.90;99.90;;;;;;5098315;28;20137;-68
2022/07/24 03:03:15;;;;;;;13.27;10.57;;;16.90;99.90;;;;;;5098259;28;20040;-68
2022/07/24 03:05:40;;;;;;;13.10;9.35;;;16.80;99.90;;;;;;5079967;28;20044;-71
2022/07/24 03:08:06;;;;;;;15.68;9.70;;;16.90;99.90;;;;;;5097822;28;20527;-67
2022/07/24 03:10:32;;;;;;;13.32;9.85;;;16.90;99.90;;;;;;5080275;28;20043;-67
2022/07/24 03:12:57;;;;;;;11.15;10.05;;;16.80;99.90;;;;;;5079911;28;20488;-70
2022/07/24 03:15:23;;;;;;;12.27;10.52;;;16.90;99.90;;;;;;5097877;28;20044;-70
2022/07/24 03:17:54;;;;;;;11.73;10.48;;;16.90;99.90;;;;;;5098079;28;20048;-68
2022/07/24 03:20:20;;;;;;;12.20;10.68;;;16.80;99.90;;;;;;5097315;28;20040;-69
2022/07/24 03:22:46;;;;;;;12.02;10.80;;;16.80;99.90;;;;;;5097750;28;20040;-69
2022/07/24 03:25:12;;;;;;;12.13;10.68;;;16.80;99.90;;;;;;5097542;28;20109;-68
2022/07/24 03:27:38;;;;;;;11.63;9.65;;;16.80;99.90;;;;;;5063082;28;20474;-67
2022/07/24 03:30:05;;;;;;;12.25;10.15;;;16.80;99.90;;;;;;5097377;28;20055;-68
2022/07/24 03:32:30;;;;;;;15.20;10.55;;;16.80;99.90;;;;;;5097806;28;20445;-67
2022/07/24 03:34:56;;;;;;;13.90;10.63;;;16.90;99.90;;;;;;5082265;28;20051;-68
2022/07/24 03:37:21;;;;;;;12.95;10.48;;;16.80;99.90;;;;;;5108190;28;20154;-66
2022/07/24 03:39:47;;;;;;;15.88;9.85;;;16.80;99.90;;;;;;5090244;28;20044;-67
2022/07/24 03:42:12;;;;;;;11.32;10.05;;;16.80;99.90;;;;;;5090762;28;20134;-66
2022/07/24 03:44:38;;;;;;;11.48;10.10;;;16.80;99.90;;;;;;5102158;28;20052;-68
2022/07/24 03:47:04;;;;;;;13.43;10.82;;;16.90;99.90;;;;;;5080550;28;20052;-69
2022/07/24 03:49:29;;;;;;;16.33;10.32;;;16.90;99.90;;;;;;5099263;28;20097;-70
2022/07/24 03:51:55;;;;;;;12.48;10.80;;;16.80;99.90;;;;;;5079893;28;20138;-67
2022/07/24 03:54:21;;;;;;;12.50;10.65;;;16.80;99.90;;;;;;5096860;28;20070;-69
2022/07/24 03:56:47;;;;;;;14.82;10.65;;;16.80;99.90;;;;;;5096834;28;20507;-71
2022/07/24 03:59:13;;;;;;;15.70;11.05;;;16.90;99.90;;;;;;5096722;28;20060;-67
2022/07/24 04:01:38;;;;;;;13.70;10.63;;;16.90;99.90;;;;;;5096975;28;20430;-67
2022/07/24 04:04:07;;;;;;;11.43;9.80;;;16.90;99.90;;;;;;5096878;28;20044;-69
2022/07/24 04:06:33;;;;;;;13.85;11.00;;;16.90;99.90;;;;;;5096483;28;20415;-67
2022/07/24 04:09:00;;;;;;;10.75;9.52;;;16.80;99.90;;;;;;5078993;28;20056;-69
2022/07/24 04:11:26;;;;;;;11.93;10.25;;;16.90;99.90;;;;;;5079258;28;20052;-69
2022/07/24 04:13:51;;;;;;;12.38;11.07;;;16.90;99.90;;;;;;5096607;28;20040;-67
2022/07/24 04:16:17;;;;;;;11.57;10.38;;;16.80;99.90;;;;;;5096677;28;20055;-67
2022/07/24 04:18:43;;;;;;;12.27;10.90;;;16.90;99.90;;;;;;5096717;28;20124;-67
2022/07/24 04:21:08;;;;;;;14.70;10.77;;;16.90;99.90;;;;;;5096674;28;20079;-69
2022/07/24 04:23:34;;;;;;;14.23;11.25;;;16.90;99.90;;;;;;5096488;28;20115;-71
2022/07/24 04:26:00;;;;;;;13.00;10.85;;;16.90;99.90;;;;;;5096498;28;20507;-67
2022/07/24 04:28:25;;;;;;;12.73;11.27;;;16.80;99.90;;;;;;5096136;28;20044;-71
2022/07/24 04:30:51;;;;;;;16.63;12.23;;;17.00;99.90;;;;;;5096411;28;20044;-70
2022/07/24 04:33:17;;;;;;;12.63;11.32;;;16.90;99.90;;;;;;5078180;28;20102;-70
2022/07/24 04:35:42;;;;;;;15.52;12.27;;;17.00;99.90;;;;;;5096175;28;20047;-67
2022/07/24 04:38:08;;;;;;;12.63;11.27;;;16.90;99.90;;;;;;5078590;28;20073;-69
2022/07/24 04:40:34;;;;;;;13.32;11.27;;;16.90;99.90;;;;;;5095994;28;20054;-67
2022/07/24 04:42:59;;;;;;;12.32;11.07;;;17.00;99.90;;;;;;5096116;28;20134;-71
2022/07/24 04:45:25;;;;;;;14.98;11.10;;;17.00;99.90;;;;;;5096293;28;20090;-68
2022/07/24 04:47:50;;;;;;;13.10;11.73;;;17.00;99.90;;;;;;5096095;28;20485;-68
2022/07/24 04:50:16;;;;;;;15.43;12.32;;;17.00;99.90;;;;;;5095799;28;20048;-69
2022/07/24 04:52:42;;;;;;;14.75;12.20;;;17.00;99.90;;;;;;5095928;28;20036;-70
2022/07/24 04:55:08;;;;;;;14.13;10.90;;;17.00;99.90;;;;;;5078032;28;20044;-69
2022/07/24 04:57:34;;;;;;;12.57;10.68;;;17.00;99.90;;;;;;5095868;28;20478;-68
2022/07/24 04:59:59;;;;;;;13.55;10.90;;;17.10;99.90;;;;;;5095878;28;20044;-69
2022/07/24 05:02:25;;;;;;;15.40;12.50;;;17.10;99.90;;;;;;5095767;28;20048;-69
2022/07/24 05:04:51;;;;;;;15.68;12.18;;;17.10;99.90;;;;;;5095976;28;20040;-68
2022/07/24 05:07:17;;;;;;;12.68;11.45;;;17.10;99.90;;;;;;5095804;28;20082;-68
2022/07/24 05:09:42;;;;;;;15.75;12.00;;;17.10;99.90;;;;;;5095307;28;20070;-71
2022/07/24 05:12:08;;;;;;;16.92;12.73;;;17.10;99.90;;;;;;5095486;28;20090;-68
2022/07/24 05:14:34;;;;;;;14.00;11.95;;;17.10;99.90;;;;;;5095587;28;20036;-69
2022/07/24 05:16:59;;;;;;;13.73;11.88;;;17.20;99.90;;;;;;5095641;28;20098;-69
2022/07/24 05:19:25;;;;;;;15.10;11.65;;;17.30;99.90;;;;;;5095640;28;20366;-68
2022/07/24 05:21:50;;;;;;;14.30;11.20;;;17.20;99.90;;;;;;5095403;28;20036;-71
2022/07/24 05:24:16;;;;;;;15.55;12.82;;;17.30;99.90;;;;;;5095545;28;20044;-70
2022/07/24 05:26:41;;;;;;;14.40;12.13;;;17.40;99.90;;;;;;5095287;28;20047;-69
2022/07/24 05:29:07;;;;;;;13.27;11.88;;;17.50;99.90;;;;;;5095457;28;20052;-67
2022/07/24 05:31:34;;;;;;;15.90;12.02;;;17.50;99.90;;;;;;5095643;28;20043;-69
2022/07/24 05:34:02;;;;;;;13.70;12.20;;;17.60;99.90;;;;;;5095699;28;20131;-70
2022/07/24 05:36:28;;;;;;;14.90;13.30;;;17.70;99.90;;;;;;5095065;28;20388;-68
2022/07/24 05:38:54;;;;;;;14.90;12.90;;;17.70;99.90;;;;;;5095349;28;20035;-69
2022/07/24 05:41:20;;;;;;;14.85;11.88;;;17.80;99.90;;;;;;5095276;28;20044;-69
2022/07/24 05:43:45;;;;;;;16.38;13.48;;;17.80;99.90;;;;;;5095210;28;20430;-68
2022/07/24 05:46:11;;;;;;;18.52;13.80;;;17.80;99.90;;;;;;5059778;28;20048;-70
2022/07/24 05:48:36;;;;;;;16.27;14.15;;;17.80;99.90;;;;;;5077157;28;20469;-68
2022/07/24 05:51:02;;;;;;;15.40;13.75;;;17.80;99.90;;;;;;5095179;28;20055;-69
2022/07/24 05:53:28;;;;;;;17.25;13.05;;;17.90;99.90;;;;;;5095244;28;20048;-70
2022/07/24 05:55:54;;;;;;;16.70;14.77;;;17.90;99.90;;;;;;5095212;28;20151;-69
2022/07/24 05:58:19;;;;;;;17.17;14.25;;;17.90;99.90;;;;;;5095368;28;20036;-69
2022/07/24 06:00:45;;;;;;;16.23;14.23;;;17.90;99.90;;;;;;5094787;28;20136;-68
2022/07/24 06:03:11;;;;;;;16.25;14.48;;;17.90;99.90;;;;;;5042781;28;20059;-71
2022/07/24 06:05:37;;;;;;;18.20;14.93;;;17.90;99.90;;;;;;5060296;28;20044;-67
2022/07/24 06:08:03;;;;;;;22.13;14.63;;;18.00;99.90;;;;;;5076978;28;20048;-68
2022/07/24 06:10:29;;;;;;;16.67;14.43;;;18.10;99.90;;;;;;5094931;28;20040;-70
2022/07/24 06:12:54;;;;;;;21.08;15.55;;;18.20;99.90;;;;;;5094810;28;20040;-69
2022/07/24 06:15:20;;;;;;;17.00;15.20;;;18.30;99.90;;;;;;5094966;28;20055;-70
2022/07/24 06:17:45;;;;;;;20.42;16.85;;;18.40;99.90;;;;;;5094869;28;20065;-68
2022/07/24 06:20:12;;;;;;;18.60;15.60;;;18.50;99.90;;;;;;5094847;28;20059;-71
2022/07/24 06:22:40;;;;;;;17.13;15.23;;;18.60;99.90;;;;;;5097330;28;20051;-70
2022/07/24 06:25:06;;;;;;;18.58;15.80;;;18.80;99.90;;;;;;5098887;28;20055;-68
2022/07/24 06:27:31;;;;;;;20.33;16.73;;;18.90;99.90;;;;;;5098758;28;20044;-70
2022/07/24 06:29:57;;;;;;;18.23;16.17;;;19.00;99.90;;;;;;5080673;28;20108;-70
2022/07/24 06:32:23;;;;;;;21.63;15.45;;;19.10;99.90;;;;;;5098750;28;20043;-68
2022/07/24 06:34:48;;;;;;;18.35;15.50;;;19.30;99.90;;;;;;5098506;28;20044;-68
2022/07/24 06:37:14;;;;;;;19.48;16.58;;;19.40;99.90;;;;;;5098512;28;20063;-71
2022/07/24 06:39:40;;;;;;;19.08;14.50;;;19.60;99.90;;;;;;5098426;28;20134;-71
2022/07/24 06:42:05;;;;;;;23.20;15.73;;;19.80;99.90;;;;;;5098517;28;20127;-69
2022/07/24 06:44:33;;;;;;;17.98;15.48;;;19.90;99.90;;;;;;5098570;28;20098;-71
2022/07/24 06:46:59;;;;;;;17.98;15.05;;;20.00;99.90;;;;;;5098480;28;20076;-69
2022/07/24 06:49:24;;;;;;;20.00;16.02;;;20.10;99.90;;;;;;5098163;28;20129;-68
2022/07/24 06:51:50;;;;;;;20.88;16.65;;;20.10;99.90;;;;;;5098220;28;20174;-68
2022/07/24 06:54:15;;;;;;;20.88;17.70;;;20.20;99.90;;;;;;5098496;28;20043;-70
2022/07/24 06:56:41;;;;;;;19.85;17.05;;;20.30;99.90;;;;;;5098259;28;20410;-70
2022/07/24 06:59:07;;;;;;;22.27;17.65;;;20.30;99.90;;;;;;5080184;28;20044;-69
2022/07/24 07:01:32;;;;;;;21.73;17.60;;;20.40;99.90;;;;;;5098087;28;20090;-70
2022/07/24 07:03:58;;;;;;;17.98;15.10;;;20.40;99.90;;;;;;5098014;28;20361;-70
2022/07/24 07:06:23;;;;;;;15.60;13.20;;;20.30;99.90;;;;;;5097945;28;20537;-69
2022/07/24 07:08:49;;;;;;;13.80;12.23;;;20.40;99.90;;;;;;5097731;28;20058;-67
2022/07/24 07:11:15;;;;;;;15.70;13.88;;;20.40;99.90;;;;;;5098157;28;20044;-68
2022/07/24 07:13:40;;;;;;;17.50;13.95;;;20.50;99.90;;;;;;5097990;28;20043;-67
2022/07/24 07:16:06;;;;;;;17.30;13.93;;;20.50;99.90;;;;;;5079836;28;20044;-71
2022/07/24 07:18:32;;;;;;;17.45;13.70;;;20.50;99.90;;;;;;5097697;28;20040;-69
2022/07/24 07:20:57;;;;;;;16.63;13.20;;;20.60;99.90;;;;;;5097766;28;20181;-69
2022/07/24 07:23:26;;;;;;;13.52;12.07;;;20.60;99.90;;;;;;5097869;28;20434;-70
2022/07/24 07:25:53;;;;;;;11.13;8.57;;;20.60;99.90;;;;;;5079932;28;20047;-69
2022/07/24 07:28:19;;;;;;;10.15;7.03;;;20.60;99.90;;;;;;5097251;28;20048;-68
2022/07/24 07:30:44;;;;;;;12.02;6.95;;;20.60;99.90;;;;;;5097492;28;20059;-70
2022/07/24 07:33:10;;;;;;;9.98;6.43;;;20.60;99.90;;;;;;5096704;28;20442;-68
2022/07/24 07:35:36;;;;;;;9.60;6.40;;;20.60;99.90;;;;;;5079896;28;20052;-68
2022/07/24 07:38:02;;;;;;;7.82;5.97;;;20.50;99.90;;;;;;5097359;28;20105;-71
2022/07/24 07:40:27;;;;;;;11.95;6.90;;;20.50;99.90;;;;;;5097359;28;20056;-70
2022/07/24 07:42:53;;;;;;;8.75;5.95;;;20.50;99.90;;;;;;5097468;28;20082;-70
2022/07/24 07:45:19;;;;;;;10.52;6.25;;;20.50;99.90;;;;;;5097336;28;20040;-69
2022/07/24 07:47:44;;;;;;;12.73;7.28;;;20.40;99.90;;;;;;5097119;28;20055;-68
2022/07/24 07:50:10;;;;;;;9.93;6.40;;;20.50;99.90;;;;;;5078973;28;20075;-71
2022/07/24 07:52:36;;;;;;;9.55;6.45;;;20.50;99.90;;;;;;5097117;28;20032;-71
2022/07/24 07:55:02;;;;;;;11.35;6.90;;;20.40;99.90;;;;;;5097180;28;20115;-71
2022/07/24 07:57:28;;;;;;;11.15;6.60;;;20.50;99.90;;;;;;5079533;28;20459;-69
2022/07/24 07:59:53;;;;;;;9.38;5.90;;;20.50;99.90;;;;;;5096905;28;20075;-71
2022/07/24 08:02:19;;;;;;;8.90;5.95;;;20.40;99.90;;;;;;5096973;28;20084;-68
2022/07/24 08:04:45;;;;;;;8.77;6.05;;;20.60;99.90;;;;;;5096909;28;20032;-73
2022/07/24 08:07:10;;;;;;;10.95;6.80;;;20.80;99.90;;;;;;5096899;28;20343;-71
2022/07/24 08:09:37;;;;;;;8.90;6.15;;;20.80;99.90;;;;;;5096767;28;20052;-68
2022/07/24 08:12:03;;;;;;;12.20;6.07;;;20.90;99.90;;;;;;5096918;28;20157;-69
2022/07/24 08:14:29;;;;;;;9.35;6.20;;;21.10;99.90;;;;;;5096863;28;20078;-69
2022/07/24 08:16:55;;;;;;;6.90;6.10;;;21.20;99.90;;;;;;5096462;28;20124;-70
2022/07/24 08:19:20;;;;;;;9.00;5.95;;;21.40;99.90;;;;;;5090027;28;20048;-69
2022/07/24 08:21:46;;;;;;;9.07;6.07;;;21.40;99.90;;;;;;5096579;28;20036;-69
2022/07/24 08:24:12;;;;;;;9.02;6.15;;;21.50;99.90;;;;;;5096509;28;20043;-69
2022/07/24 08:26:38;;;;;;;9.80;5.38;;;21.50;99.90;;;;;;5096066;28;20055;-69
2022/07/24 08:29:04;;;;;;;10.40;5.38;;;21.50;99.90;;;;;;5096162;28;20358;-70
2022/07/24 08:31:29;;;;;;;6.05;5.28;;;21.60;99.90;;;;;;5096359;28;20079;-68
2022/07/24 08:33:55;;;;;;;9.85;4.93;;;21.70;99.90;;;;;;5096234;28;20047;-69
2022/07/24 08:36:21;;;;;;;7.20;4.80;;;21.90;99.90;;;;;;5096242;28;20036;-70
2022/07/24 08:38:46;;;;;;;6.65;5.18;;;22.00;99.90;;;;;;5096299;28;20052;-70
2022/07/24 08:41:13;;;;;;;7.85;4.30;;;22.10;99.90;;;;;;5096252;28;20051;-70
2022/07/24 08:43:38;;;;;;;7.32;5.05;;;22.10;99.90;;;;;;5078139;28;20141;-71
2022/07/24 08:46:09;;;;;;;9.80;5.25;;;22.10;99.90;;;;;;5094888;28;20476;-69
2022/07/24 08:48:34;;;;;;;8.80;5.05;;;22.10;99.90;;;;;;5095882;28;20044;-71
2022/07/24 08:51:01;;;;;;;8.60;5.00;;;22.00;99.90;;;;;;5096065;28;20435;-71
2022/07/24 08:53:26;;;;;;;7.97;5.10;;;22.20;99.90;;;;;;5095972;28;20040;-69
2022/07/24 08:55:52;;;;;;;10.07;5.45;;;22.30;99.90;;;;;;5096025;28;20055;-72
2022/07/24 08:58:17;;;;;;;11.23;5.03;;;22.30;99.90;;;;;;5095850;28;20520;-70
2022/07/24 09:00:45;;;;;;;5.97;4.93;;;22.40;99.90;;;;;;5095915;28;20074;-73
2022/07/24 09:03:12;;;;;;;8.32;5.30;;;22.50;99.90;;;;;;5095678;28;20040;-70
2022/07/24 09:05:59;;;;;;;7.28;5.00;;;22.60;99.90;;;;;;5095890;28;20044;-72
2022/07/24 09:08:24;;;;;;;8.55;4.97;;;22.60;99.90;;;;;;5095643;28;20043;-68
2022/07/24 09:11:04;;;;;;;7.47;4.68;;;22.60;99.90;;;;;;5095657;28;20048;-68
2022/07/24 09:14:29;;;;;;;11.25;5.07;;;22.60;99.90;;;;;;5095900;28;20051;-69
2022/07/24 09:16:25;;;;;;;7.10;4.35;;;22.50;99.90;;;;;;5095414;28;20044;-70
2022/07/24 09:19:08;;;;;;;8.15;4.88;;;22.80;99.90;;;;;;5095804;28;20048;-70
2022/07/24 09:21:36;;;;;;;11.25;4.60;;;22.90;99.90;;;;;;5077678;28;20058;-71
2022/07/24 09:24:16;;;;;;;6.47;4.68;;;23.20;99.90;;;;;;5095485;28;20044;-71
2022/07/24 09:26:51;;;;;;;9.80;5.25;;;23.20;99.90;;;;;;5095454;28;20032;-69
2022/07/24 09:29:18;;;;;;;7.40;4.78;;;23.20;99.90;;;;;;5095292;28;20062;-72
2022/07/24 09:31:51;;;;;;;9.15;4.60;;;23.40;99.90;;;;;;5095354;28;20040;-69
2022/07/24 09:34:16;;;;;;;8.15;4.55;;;23.50;99.90;;;;;;5095148;28;20109;-72
2022/07/24 09:36:57;;;;;;;4.97;4.10;;;23.50;99.90;;;;;;5095309;28;20083;-72
2022/07/24 09:39:27;;;;;;;12.73;4.40;;;23.50;99.90;;;;;;5095177;28;20067;-72
2022/07/24 09:41:54;;;;;;;7.07;5.60;;;23.40;99.90;;;;;;5095333;28;20047;-71
2022/07/24 09:44:22;;;;;;;9.75;4.70;;;23.40;99.90;;;;;;5095347;28;20055;-69
2022/07/24 09:46:58;;;;;;;7.72;4.35;;;23.40;99.90;;;;;;5095349;28;20048;-71
2022/07/24 09:49:25;;;;;;;6.43;4.60;;;23.50;99.90;;;;;;5095111;28;20131;-71
2022/07/24 09:52:07;;;;;;;6.50;4.05;;;23.60;99.90;;;;;;5095001;28;20460;-70
2022/07/24 09:54:35;;;;;;;8.07;4.00;;;23.40;99.90;;;;;;5095066;28;20058;-68
2022/07/24 09:57:21;;;;;;;6.15;3.97;;;23.30;99.90;;;;;;5096832;28;20438;-69
2022/07/24 09:59:57;;;;;;;8.75;4.05;;;23.40;99.90;;;;;;5099296;28;20048;-69
2022/07/24 10:02:29;;;;;;;5.63;4.13;;;23.40;99.90;;;;;;5099431;28;20354;-71
2022/07/24 10:04:56;;;;;;;4.03;3.55;;;23.50;99.90;;;;;;5098901;28;20079;-70
2022/07/24 10:07:24;;;;;;;6.03;3.95;;;23.30;99.90;;;;;;5081378;28;20066;-69
2022/07/24 10:09:54;;;;;;;9.98;4.38;;;23.30;99.90;;;;;;5099823;28;20055;-69
2022/07/24 10:12:30;;;;;;;7.60;3.65;;;23.20;99.90;;;;;;5100364;28;20105;-69
2022/07/24 10:14:59;;;;;;;4.93;3.72;;;23.20;99.90;;;;;;5100733;28;20106;-68
2022/07/24 10:17:47;;;;;;;6.10;3.97;;;23.20;99.90;;;;;;5100055;28;20109;-69
2022/07/24 10:20:27;;;;;;;4.78;4.18;;;23.20;99.90;;;;;;5099197;28;20052;-70
2022/07/24 10:23:04;;;;;;;7.10;3.85;;;23.20;99.90;;;;;;5099578;28;20047;-70
2022/07/24 10:25:49;;;;;;;6.22;4.00;;;23.20;99.90;;;;;;5099117;28;20054;-71
2022/07/24 10:28:31;;;;;;;9.38;4.03;;;23.10;99.90;;;;;;5080781;28;20098;-69
2022/07/24 10:30:56;;;;;;;6.15;3.67;;;23.10;99.90;;;;;;5098826;28;20048;-69
2022/07/24 10:33:22;;;;;;;6.65;4.13;;;23.20;99.90;;;;;;5098432;28;20125;-70
2022/07/24 10:35:49;;;;;;;7.30;3.90;;;23.30;99.90;;;;;;5098845;28;20091;-71
2022/07/24 10:38:28;;;;;;;9.43;4.00;;;23.50;99.90;;;;;;5098778;28;20109;-69
2022/07/24 10:40:59;;;;;;;9.10;4.03;;;23.70;99.90;;;;;;5098393;28;20047;-70
2022/07/24 10:43:24;;;;;;;6.15;3.55;;;23.70;99.90;;;;;;5098455;28;20098;-72
2022/07/24 10:45:53;;;;;;;6.22;3.95;;;23.90;99.90;;;;;;5098466;28;20457;-72
2022/07/24 10:48:27;;;;;;;5.10;3.65;;;23.80;99.90;;;;;;5098386;28;20055;-69
2022/07/24 10:50:59;;;;;;;4.95;3.70;;;23.80;99.90;;;;;;5098108;28;20056;-69
2022/07/24 10:53:26;;;;;;;6.43;4.00;;;23.70;99.90;;;;;;5079979;28;20055;-71
2022/07/24 10:55:54;;;;;;;4.20;3.60;;;23.70;99.90;;;;;;5098235;28;20047;-69
2022/07/24 10:58:21;;;;;;;5.60;3.50;;;23.90;99.90;;;;;;5098203;28;20040;-71
2022/07/24 11:00:49;;;;;;;5.65;3.67;;;23.80;99.90;;;;;;5098267;28;20481;-71
2022/07/24 11:03:29;;;;;;;4.90;3.20;;;24.20;99.90;;;;;;5080527;28;20420;-69
2022/07/24 11:06:09;;;;;;;6.32;3.53;;;24.50;99.90;;;;;;5062545;28;20059;-72
2022/07/24 11:09:00;;;;;;;6.07;3.72;;;24.70;99.90;;;;;;5096820;28;20127;-69
2022/07/24 11:11:27;;;;;;;4.32;3.50;;;24.80;99.90;;;;;;5098104;28;20059;-72
2022/07/24 11:13:54;;;;;;;8.75;3.90;;;24.80;99.90;;;;;;5098047;28;20052;-72
2022/07/24 11:16:25;;;;;;;11.98;3.58;;;24.60;99.90;;;;;;5097673;28;20051;-70
2022/07/24 11:18:53;;;;;;;9.25;4.13;;;24.70;99.90;;;;;;5097984;28;20044;-71
2022/07/24 11:21:43;;;;;;;7.00;3.97;;;24.80;99.90;;;;;;5097819;28;20048;-70
2022/07/24 11:26:45;;;;;;;6.25;3.60;;;25.10;99.90;;;;;;5097536;28;20511;-72
2022/07/24 11:29:23;;;;;;;4.75;3.90;;;25.20;99.90;;;;;;5097548;28;20056;-72
2022/07/24 11:31:53;;;;;;;6.72;4.50;;;25.50;99.90;;;;;;5097775;28;20040;-69
2022/07/24 11:34:19;;;;;;;6.78;4.18;;;25.70;99.90;;;;;;5097556;28;20090;-69
2022/07/24 11:36:50;;;;;;;5.22;4.00;;;25.80;99.90;;;;;;5097475;28;20378;-71
2022/07/24 11:39:18;;;;;;;8.10;3.70;;;25.80;99.50;;;;;;5097353;28;20040;-73
2022/07/24 11:41:48;;;;;;;6.32;4.03;;;25.70;99.60;;;;;;5097314;28;20059;-69
2022/07/24 11:44:21;;;;;;;6.70;3.60;;;25.70;99.20;;;;;;5097288;28;20044;-69
2022/07/24 11:46:47;;;;;;;6.30;3.78;;;25.70;99.90;;;;;;5097415;28;20055;-71
2022/07/24 11:49:13;;;;;;;7.93;3.45;;;26.00;99.90;;;;;;5097174;28;20052;-71
2022/07/24 11:51:43;;;;;;;6.00;3.85;;;26.20;99.90;;;;;;5097218;28;20040;-71
2022/07/24 11:54:11;;;;;;;12.90;3.83;;;26.30;99.40;;;;;;5079529;28;20374;-70
2022/07/24 11:56:37;;;;;;;8.35;3.42;;;26.20;99.50;;;;;;5097127;28;20044;-70
2022/07/24 11:59:02;;;;;;;4.57;3.42;;;26.40;99.50;;;;;;5079726;28;20108;-70
2022/07/24 12:01:28;;;;;;;5.95;3.28;;;26.50;99.20;;;;;;5097073;28;20083;-71
2022/07/24 12:03:58;;;;;;;6.50;3.80;;;26.60;99.30;;;;;;5096932;28;20426;-71
2022/07/24 12:06:24;;;;;;;7.25;3.78;;;26.70;98.80;;;;;;5097039;28;20055;-69
2022/07/24 12:08:50;;;;;;;7.75;3.55;;;26.80;99.00;;;;;;5096722;28;20040;-70
2022/07/24 12:11:22;;;;;;;6.82;3.58;;;26.60;98.50;;;;;;5096771;28;20445;-73
2022/07/24 12:13:48;;;;;;;6.63;3.75;;;26.80;98.60;;;;;;5096738;28;20036;-71
2022/07/24 12:16:25;;;;;;;6.75;3.33;;;27.10;98.80;;;;;;5096246;28;20044;-72
2022/07/24 12:18:50;;;;;;;5.97;3.55;;;27.10;97.30;;;;;;5096501;28;20050;-72
2022/07/24 12:21:17;;;;;;;3.25;3.05;;;26.80;97.40;;;;;;5096514;28;20119;-70
2022/07/24 12:23:46;;;;;;;6.63;3.20;;;26.50;97.60;;;;;;5096472;28;20040;-72
2022/07/24 12:26:11;;;;;;;6.00;3.55;;;26.30;98.20;;;;;;5078859;28;20501;-70
2022/07/24 12:28:37;;;;;;;9.32;3.58;;;26.30;98.00;;;;;;5096023;28;20175;-70
2022/07/24 12:31:10;;;;;;;7.22;3.28;;;26.70;98.00;;;;;;5095939;28;20485;-71
2022/07/24 12:33:35;;;;;;;4.17;3.20;;;26.60;97.60;;;;;;5096262;28;20131;-71
2022/07/24 12:36:11;;;;;;;5.68;3.15;;;27.00;97.70;;;;;;5096283;28;20132;-70
2022/07/24 12:38:39;;;;;;;4.55;3.05;;;27.30;97.80;;;;;;5096347;28;20036;-70
2022/07/24 12:41:06;;;;;;;5.35;3.22;;;27.30;97.20;;;;;;5096237;28;20040;-69